createdAt,value
2023-05-09T00:02:06.257Z,59.22
2023-05-09T00:04:34.088Z,58.42
2023-05-09T00:07:01.405Z,56.60
2023-05-09T00:09:28.608Z,57.50
2023-05-09T00:11:55.855Z,56.38
2023-05-09T00:14:24.825Z,55.22
2023-05-09T00:16:53.589Z,54.85
2023-05-09T00:19:20.854Z,65.38
2023-05-09T00:21:48.033Z,64.43
2023-05-09T00:24:15.289Z,61.55
2023-05-09T00:26:42.487Z,60.15
2023-05-09T00:29:10.271Z,67.03
2023-05-09T00:31:37.509Z,71.88
2023-05-09T00:34:04.714Z,64.57
2023-05-09T00:36:32.702Z,61.88
2023-05-09T00:38:59.890Z,71.07
2023-05-09T00:41:27.126Z,66.15
2023-05-09T00:43:54.453Z,71.70
2023-05-09T00:46:21.954Z,71.45
2023-05-09T00:48:49.309Z,63.88
2023-05-09T00:51:16.954Z,75.32
2023-05-09T00:53:45.788Z,71.95
2023-05-09T00:56:13.702Z,69.05
2023-05-09T00:58:41.336Z,64.53
2023-05-09T01:01:08.721Z,66.57
2023-05-09T01:03:36.579Z,69.63
2023-05-09T01:06:29.430Z,68.63
2023-05-09T01:09:03.686Z,69.40
2023-05-09T01:11:44.252Z,64.05
2023-05-09T01:14:37.624Z,71.53
2023-05-09T01:17:33.530Z,67.22
2023-05-09T01:20:26.967Z,65.55
2023-05-09T01:23:13.310Z,72.70
2023-05-09T01:25:48.997Z,60.05
2023-05-09T01:28:29.413Z,68.00
2023-05-09T01:30:57.621Z,55.95
2023-05-09T01:33:26.911Z,61.10
2023-05-09T01:35:59.800Z,50.42
2023-05-09T01:38:29.655Z,70.15
2023-05-09T01:40:59.852Z,69.70
2023-05-09T01:43:29.698Z,61.97
2023-05-09T01:45:58.478Z,68.78
2023-05-09T01:48:28.082Z,60.15
2023-05-09T01:50:57.435Z,62.10
2023-05-09T01:53:25.714Z,62.58
2023-05-09T01:55:54.069Z,52.30
2023-05-09T01:58:23.526Z,40.08
2023-05-09T02:00:51.703Z,56.80
2023-05-09T02:03:19.983Z,55.08
2023-05-09T02:05:48.566Z,57.97
2023-05-09T02:08:17.383Z,47.13
2023-05-09T02:10:46.216Z,57.90
2023-05-09T02:13:13.492Z,53.90
2023-05-09T02:15:42.136Z,60.88
2023-05-09T02:18:09.496Z,58.88
2023-05-09T02:20:36.853Z,56.83
2023-05-09T02:23:04.507Z,55.10
2023-05-09T02:25:33.701Z,56.28
2023-05-09T02:28:02.481Z,61.92
2023-05-09T02:30:45.717Z,52.42
2023-05-09T02:33:14.328Z,49.58
2023-05-09T02:35:44.462Z,58.00
2023-05-09T02:38:14.260Z,51.95
2023-05-09T02:40:44.284Z,57.85
2023-05-09T02:43:11.633Z,55.95
2023-05-09T02:45:38.931Z,57.85
2023-05-09T02:48:08.770Z,60.35
2023-05-09T02:50:38.243Z,58.65
2023-05-09T02:53:06.167Z,50.78
2023-05-09T02:55:33.578Z,57.65
2023-05-09T02:58:12.760Z,54.78
2023-05-09T03:00:42.969Z,55.85
2023-05-09T03:03:10.759Z,55.35
2023-05-09T03:05:38.258Z,55.80
2023-05-09T03:08:05.668Z,52.28
2023-05-09T03:10:34.664Z,51.80
2023-05-09T03:13:02.120Z,59.80
2023-05-09T03:15:32.089Z,54.72
2023-05-09T03:18:00.440Z,55.42
2023-05-09T03:20:27.824Z,56.15
2023-05-09T03:22:58.434Z,55.97
2023-05-09T03:25:26.385Z,54.85
2023-05-09T03:27:53.627Z,42.03
2023-05-09T03:30:21.049Z,45.13
2023-05-09T03:32:49.978Z,50.63
2023-05-09T03:35:17.404Z,35.78
2023-05-09T03:37:44.694Z,17.95
2023-05-09T03:40:12.164Z,46.65
2023-05-09T03:42:46.697Z,33.85
2023-05-09T03:45:14.274Z,37.15
2023-05-09T03:47:42.733Z,39.53
2023-05-09T03:50:10.904Z,44.55
2023-05-09T03:52:38.240Z,45.42
2023-05-09T03:55:07.193Z,32.33
2023-05-09T03:57:36.435Z,46.75
2023-05-09T04:00:08.110Z,44.70
2023-05-09T04:02:42.369Z,39.03
2023-05-09T04:05:16.750Z,37.42
2023-05-09T04:07:44.459Z,46.63
2023-05-09T04:10:12.170Z,39.85
2023-05-09T04:12:39.483Z,38.35
2023-05-09T04:15:07.662Z,38.30
2023-05-09T04:17:35.802Z,40.35
2023-05-09T04:20:03.376Z,36.67
2023-05-09T04:22:31.114Z,35.83
2023-05-09T04:24:58.480Z,36.92
2023-05-09T04:27:27.935Z,30.23
2023-05-09T04:29:55.689Z,29.02
2023-05-09T04:32:23.271Z,24.90
2023-05-09T04:34:50.884Z,27.08
2023-05-09T04:37:23.355Z,25.40
2023-05-09T04:39:51.176Z,21.77
2023-05-09T04:42:24.657Z,34.00
2023-05-09T04:44:52.456Z,32.03
2023-05-09T04:47:21.914Z,29.35
2023-05-09T04:49:49.157Z,24.25
2023-05-09T04:52:17.053Z,34.10
2023-05-09T04:54:44.325Z,31.13
2023-05-09T04:57:18.093Z,26.65
2023-05-09T04:59:50.884Z,18.25
2023-05-09T05:02:19.428Z,23.08
2023-05-09T05:04:48.216Z,27.13
2023-05-09T05:07:16.228Z,27.40
2023-05-09T05:09:44.580Z,30.63
2023-05-09T05:12:12.021Z,29.23
2023-05-09T05:14:40.935Z,34.40
2023-05-09T05:17:10.334Z,22.30
2023-05-09T05:19:37.497Z,27.67
2023-05-09T05:22:06.610Z,30.08
2023-05-09T05:24:36.194Z,36.40
2023-05-09T05:27:03.477Z,40.22
2023-05-09T05:29:30.987Z,41.17
2023-05-09T05:31:58.260Z,41.90
2023-05-09T05:34:25.554Z,41.25
2023-05-09T05:36:52.931Z,40.95
2023-05-09T05:39:20.646Z,41.95
2023-05-09T05:41:48.924Z,45.78
2023-05-09T05:44:17.220Z,38.08
2023-05-09T05:46:44.986Z,39.35
2023-05-09T05:49:12.519Z,31.42
2023-05-09T05:51:39.828Z,38.53
2023-05-09T05:54:09.118Z,23.98
2023-05-09T05:56:37.208Z,49.10
2023-05-09T05:59:04.681Z,28.65
2023-05-09T06:01:31.886Z,31.50
2023-05-09T06:03:59.276Z,38.53
2023-05-09T06:06:29.659Z,38.25
2023-05-09T06:08:57.456Z,33.88
2023-05-09T06:11:24.792Z,29.42
2023-05-09T06:13:52.087Z,28.77
2023-05-09T06:16:20.683Z,28.20
2023-05-09T06:18:53.411Z,38.22
2023-05-09T06:21:23.166Z,29.10
2023-05-09T06:24:07.707Z,28.15
2023-05-09T06:26:36.389Z,32.03
2023-05-09T06:29:06.300Z,32.67
2023-05-09T06:31:38.781Z,29.58
2023-05-09T06:34:06.703Z,34.05
2023-05-09T06:36:34.748Z,27.83
2023-05-09T06:39:01.995Z,36.55
2023-05-09T06:41:29.320Z,41.58
2023-05-09T06:43:56.727Z,29.27
2023-05-09T06:46:24.047Z,38.03
2023-05-09T06:48:51.294Z,38.15
2023-05-09T06:51:18.603Z,30.45
2023-05-09T06:53:45.758Z,44.03
2023-05-09T06:56:13.810Z,30.48
2023-05-09T06:58:41.139Z,35.58
2023-05-09T07:01:08.441Z,37.38
2023-05-09T07:03:35.777Z,25.10
2023-05-09T07:06:03.039Z,22.15
2023-05-09T07:08:30.272Z,33.53
2023-05-09T07:10:57.898Z,29.02
2023-05-09T07:13:25.336Z,32.45
2023-05-09T07:15:52.616Z,32.85
2023-05-09T07:18:19.843Z,31.67
2023-05-09T07:20:47.063Z,22.05
2023-05-09T07:23:14.321Z,29.50
2023-05-09T07:25:41.736Z,33.35
2023-05-09T07:28:08.940Z,31.02
2023-05-09T07:30:36.178Z,29.58
2023-05-09T07:33:03.719Z,29.48
2023-05-09T07:35:31.398Z,31.23
2023-05-09T07:37:58.568Z,22.83
2023-05-09T07:40:26.123Z,28.40
2023-05-09T07:42:54.986Z,27.65
2023-05-09T07:45:23.872Z,32.47
2023-05-09T07:47:51.291Z,29.23
2023-05-09T07:50:18.613Z,29.95
2023-05-09T07:52:45.819Z,26.70
2023-05-09T07:55:13.171Z,35.40
2023-05-09T07:57:40.705Z,28.92
2023-05-09T08:00:08.955Z,20.15
2023-05-09T08:02:45.226Z,29.42
2023-05-09T08:05:13.899Z,21.75
2023-05-09T08:07:41.370Z,24.35
2023-05-09T08:10:09.544Z,21.77
2023-05-09T08:12:36.837Z,21.35
2023-05-09T08:15:04.570Z,30.00
2023-05-09T08:17:31.761Z,15.18
2023-05-09T08:19:58.957Z,28.63
2023-05-09T08:22:26.154Z,25.90
2023-05-09T08:24:53.335Z,20.08
2023-05-09T08:27:20.602Z,20.58
2023-05-09T08:29:47.943Z,25.42
2023-05-09T08:32:15.482Z,19.42
2023-05-09T08:34:42.793Z,24.77
2023-05-09T08:37:10.428Z,19.92
2023-05-09T08:39:38.639Z,19.33
2023-05-09T08:42:09.146Z,20.80
2023-05-09T08:44:36.608Z,23.63
2023-05-09T08:47:04.815Z,15.13
2023-05-09T08:49:33.328Z,27.20
2023-05-09T08:52:01.227Z,20.90
2023-05-09T08:54:29.918Z,19.55
2023-05-09T08:56:57.820Z,24.13
2023-05-09T08:59:26.488Z,16.05
2023-05-09T09:01:54.669Z,11.77
2023-05-09T09:04:22.422Z,17.23
2023-05-09T09:06:51.707Z,12.23
2023-05-09T09:09:20.233Z,19.02
2023-05-09T09:11:48.165Z,15.38
2023-05-09T09:14:27.577Z,18.30
2023-05-09T09:16:57.111Z,13.88
2023-05-09T09:19:30.318Z,12.20
2023-05-09T09:22:00.314Z,13.23
2023-05-09T09:24:27.562Z,14.43
2023-05-09T09:26:54.753Z,21.25
2023-05-09T09:29:22.897Z,13.48
2023-05-09T09:31:54.932Z,17.35
2023-05-09T09:34:23.660Z,14.48
2023-05-09T09:36:52.719Z,12.43
2023-05-09T09:39:21.614Z,14.77
2023-05-09T09:41:49.027Z,13.13
2023-05-09T09:44:18.046Z,17.17
2023-05-09T09:46:55.821Z,15.40
2023-05-09T09:49:25.144Z,14.35
2023-05-09T09:51:53.324Z,12.82
2023-05-09T09:54:20.848Z,14.43
2023-05-09T09:56:50.420Z,13.65
2023-05-09T09:59:19.283Z,10.00
2023-05-09T10:02:06.631Z,11.15
2023-05-09T10:04:41.298Z,15.50
2023-05-09T10:07:13.557Z,13.00
2023-05-09T10:09:43.789Z,13.77
2023-05-09T10:12:11.864Z,10.07
2023-05-09T10:14:42.487Z,15.00
2023-05-09T10:17:14.063Z,13.63
2023-05-09T10:19:45.892Z,15.27
2023-05-09T10:22:16.551Z,15.85
2023-05-09T10:24:46.431Z,16.70
2023-05-09T10:27:14.774Z,8.00
2023-05-09T10:29:46.340Z,11.35
2023-05-09T10:32:20.508Z,11.13
2023-05-09T10:34:51.285Z,15.43
2023-05-09T10:37:20.182Z,11.32
2023-05-09T10:39:53.040Z,13.85
2023-05-09T10:42:20.860Z,10.38
2023-05-09T10:44:48.367Z,12.75
2023-05-09T10:47:16.228Z,10.65
2023-05-09T10:49:44.622Z,15.60
2023-05-09T10:52:12.410Z,15.50
2023-05-09T10:54:39.671Z,18.88
2023-05-09T10:57:10.057Z,11.82
2023-05-09T10:59:40.141Z,12.63
2023-05-09T11:02:15.949Z,14.43
2023-05-09T11:04:44.239Z,9.07
2023-05-09T11:07:26.223Z,13.32
2023-05-09T11:10:07.130Z,8.98
2023-05-09T11:12:58.986Z,8.73
2023-05-09T11:15:27.868Z,10.48
2023-05-09T11:18:10.152Z,12.93
2023-05-09T11:20:44.272Z,6.10
2023-05-09T11:23:17.225Z,8.70
2023-05-09T11:25:47.752Z,12.52
2023-05-09T11:28:32.815Z,11.50
2023-05-09T11:31:14.356Z,12.15
2023-05-09T11:33:43.448Z,13.38
2023-05-09T11:36:29.224Z,10.77
2023-05-09T11:39:08.245Z,12.77
2023-05-09T11:41:43.742Z,10.23
2023-05-09T11:44:19.757Z,14.35
2023-05-09T11:46:48.763Z,8.07
2023-05-09T14:50:33.434Z,8.85
2023-05-09T14:53:01.151Z,8.23
2023-05-09T14:55:28.387Z,7.25
2023-05-09T14:57:56.107Z,5.93
2023-05-09T15:00:25.544Z,6.97
2023-05-09T15:02:53.118Z,6.43
2023-05-09T15:05:20.355Z,8.25
2023-05-09T15:07:47.538Z,7.07
2023-05-09T15:10:14.941Z,8.10
2023-05-09T15:12:44.801Z,9.95
2023-05-09T15:15:20.532Z,6.32
2023-05-09T15:17:47.988Z,7.63
2023-05-09T15:20:17.566Z,5.90
2023-05-09T15:22:49.611Z,6.13
2023-05-09T15:25:17.493Z,7.15
2023-05-09T15:27:45.098Z,8.40
2023-05-09T15:30:12.816Z,3.63
2023-05-09T15:32:42.756Z,4.82
2023-05-09T15:35:10.283Z,5.40
2023-05-09T15:37:37.710Z,4.18
2023-05-09T15:40:05.388Z,5.40
2023-05-09T15:42:32.584Z,6.22
2023-05-09T15:44:59.818Z,5.65
2023-05-09T15:47:27.074Z,8.73
2023-05-09T15:49:54.566Z,6.30
2023-05-09T15:52:21.890Z,4.85
2023-05-09T15:54:49.192Z,6.00
2023-05-09T15:57:17.536Z,7.63
2023-05-09T15:59:44.869Z,7.50
2023-05-09T16:02:12.322Z,5.88
2023-05-09T16:04:39.569Z,8.85
2023-05-09T16:07:06.880Z,6.88
2023-05-09T16:09:34.114Z,7.53
2023-05-09T16:12:01.707Z,8.40
2023-05-09T16:14:28.928Z,9.07
2023-05-09T16:16:56.160Z,6.13
2023-05-09T16:19:23.354Z,7.75
2023-05-09T16:21:50.707Z,7.85
2023-05-09T16:24:17.967Z,8.05
2023-05-09T16:26:45.213Z,8.40
2023-05-09T16:29:13.604Z,8.10
2023-05-09T16:31:40.950Z,7.80
2023-05-09T16:34:08.427Z,9.00
2023-05-09T16:36:38.648Z,7.50
2023-05-09T16:39:05.816Z,7.97
2023-05-09T16:41:33.136Z,6.35
2023-05-09T16:44:00.340Z,7.18
2023-05-09T16:46:27.552Z,7.80
2023-05-09T16:48:55.259Z,7.82
2023-05-09T16:51:22.453Z,4.80
2023-05-09T16:53:49.661Z,4.45
2023-05-09T16:56:16.951Z,7.72
2023-05-09T16:58:44.904Z,6.90
2023-05-09T17:01:12.333Z,8.73
2023-05-09T17:03:39.918Z,9.20
2023-05-09T17:06:07.415Z,9.68
2023-05-09T17:08:34.813Z,10.52
2023-05-09T17:11:01.984Z,11.18
2023-05-09T17:13:29.318Z,9.45
2023-05-09T17:15:56.881Z,12.00
2023-05-09T17:18:36.059Z,9.60
2023-05-09T17:21:05.427Z,7.65
2023-05-09T17:23:32.724Z,9.23
2023-05-09T17:26:00.066Z,9.98
2023-05-09T17:28:27.439Z,7.05
2023-05-09T17:30:54.651Z,5.43
2023-05-09T17:33:21.840Z,5.85
2023-05-09T17:35:49.948Z,4.57
2023-05-09T17:38:17.588Z,4.88
2023-05-09T17:40:45.206Z,4.95
2023-05-09T17:43:13.245Z,5.30
2023-05-09T17:45:40.464Z,5.13
2023-05-09T17:48:08.169Z,4.88
2023-05-09T17:50:35.460Z,6.47
2023-05-09T17:53:02.658Z,5.72
2023-05-09T17:55:30.318Z,5.32
2023-05-09T17:57:57.497Z,4.78
2023-05-09T18:00:24.663Z,4.63
2023-05-09T18:02:52.012Z,5.22
2023-05-09T18:05:19.364Z,5.15
2023-05-09T18:07:46.554Z,6.07
2023-05-09T18:10:13.924Z,4.75
2023-05-09T18:12:41.680Z,6.63
2023-05-09T18:15:10.314Z,8.00
2023-05-09T18:17:37.856Z,5.95
2023-05-09T18:20:06.786Z,4.75
2023-05-09T18:22:34.143Z,5.53
2023-05-09T18:25:01.916Z,5.47
2023-05-09T18:27:29.282Z,5.50
2023-05-09T18:29:56.624Z,4.07
2023-05-09T18:32:23.967Z,4.15
2023-05-09T18:34:51.628Z,5.18
2023-05-09T18:37:18.902Z,4.78
2023-05-09T18:39:46.153Z,5.00
2023-05-09T18:42:15.926Z,6.95
2023-05-09T18:44:43.628Z,5.60
2023-05-09T18:47:11.258Z,3.88
2023-05-09T18:49:38.804Z,5.00
2023-05-09T18:52:06.077Z,4.70
2023-05-09T18:54:33.286Z,5.35
2023-05-09T18:57:00.488Z,5.03
2023-05-09T18:59:27.792Z,6.37
2023-05-09T19:01:55.008Z,5.22
2023-05-09T19:04:22.229Z,5.75
2023-05-09T19:06:49.585Z,6.75
2023-05-09T19:09:16.810Z,5.10
2023-05-09T19:11:44.093Z,5.13
2023-05-09T19:14:11.261Z,6.45
2023-05-09T19:16:38.509Z,9.00
2023-05-09T19:19:05.691Z,6.15
2023-05-09T19:21:34.159Z,4.57
2023-05-09T19:24:03.655Z,4.95
2023-05-09T19:26:30.857Z,6.00
2023-05-09T19:28:58.158Z,6.20
2023-05-09T19:31:25.638Z,6.43
2023-05-09T19:33:53.152Z,7.18
2023-05-09T19:36:20.366Z,8.27
2023-05-09T19:38:47.686Z,10.77
2023-05-09T19:41:14.975Z,9.05
2023-05-09T19:43:42.242Z,8.75
2023-05-09T19:46:09.704Z,9.57
2023-05-09T19:48:36.960Z,10.80
2023-05-09T19:51:04.508Z,10.15
2023-05-09T19:53:31.758Z,9.73
2023-05-09T19:55:58.972Z,11.50
2023-05-09T19:58:27.701Z,8.48
2023-05-09T20:00:55.211Z,7.78
2023-05-09T20:03:22.928Z,8.38
2023-05-09T20:08:35.737Z,8.95
2023-05-09T20:11:03.173Z,9.18
2023-05-09T20:13:30.457Z,10.13
2023-05-09T20:15:59.178Z,7.95
2023-05-09T20:18:26.862Z,11.63
2023-05-09T20:20:54.760Z,8.73
2023-05-09T20:23:22.308Z,8.93
2023-05-09T20:25:49.720Z,9.33
2023-05-09T20:28:20.152Z,8.43
2023-05-09T20:30:47.540Z,7.95
2023-05-09T20:33:15.362Z,10.02
2023-05-09T20:35:45.422Z,9.30
2023-05-09T20:38:12.729Z,10.13
2023-05-09T20:40:41.268Z,9.27
2023-05-09T20:43:08.699Z,9.93
2023-05-09T20:45:38.992Z,10.73
2023-05-09T20:48:06.648Z,9.32
2023-05-09T20:50:33.972Z,6.57
2023-05-09T20:53:01.264Z,8.63
2023-05-09T20:55:28.577Z,9.20
2023-05-09T20:57:55.828Z,8.88
2023-05-09T21:00:23.058Z,10.90
2023-05-09T21:02:50.786Z,12.87
2023-05-09T21:05:18.115Z,11.82
2023-05-09T21:07:45.410Z,12.70
2023-05-09T21:10:12.957Z,11.93
2023-05-09T21:12:40.326Z,16.67
2023-05-09T21:15:08.166Z,14.97
2023-05-09T21:17:35.478Z,16.63
2023-05-09T21:20:02.782Z,17.25
2023-05-09T21:22:30.209Z,22.38
2023-05-09T21:24:57.454Z,21.23
2023-05-09T21:27:24.720Z,19.03
2023-05-09T21:29:51.965Z,25.35
2023-05-09T21:32:19.250Z,23.58
2023-05-09T21:34:47.980Z,28.08
2023-05-09T21:37:15.378Z,28.30
2023-05-09T21:39:42.659Z,26.35
2023-05-09T21:42:09.927Z,32.30
2023-05-09T21:44:37.155Z,30.20
2023-05-09T21:47:04.505Z,33.70
2023-05-09T21:49:31.834Z,29.48
2023-05-09T21:51:59.341Z,35.13
2023-05-09T21:54:26.613Z,34.70
2023-05-09T21:56:53.831Z,35.72
2023-05-09T21:59:22.233Z,37.60
2023-05-09T22:01:49.618Z,34.63
2023-05-09T22:04:16.904Z,40.78
2023-05-09T22:06:44.136Z,37.65
2023-05-09T22:09:11.440Z,38.60
2023-05-09T22:11:40.371Z,35.30
2023-05-09T22:14:10.120Z,36.60
2023-05-09T22:16:37.967Z,35.35
2023-05-09T22:19:05.283Z,35.75
2023-05-09T22:21:32.536Z,37.63
2023-05-09T22:23:59.747Z,36.80
2023-05-09T22:26:27.089Z,42.88
2023-05-09T22:28:56.310Z,45.25
2023-05-09T22:31:23.519Z,38.45
2023-05-09T22:33:50.861Z,43.88
2023-05-09T22:36:18.180Z,35.55
2023-05-09T22:38:45.444Z,41.80
2023-05-09T22:41:12.820Z,37.97
2023-05-09T22:43:40.138Z,41.97
2023-05-09T22:46:07.453Z,40.42
2023-05-09T22:48:34.850Z,43.17
2023-05-09T22:51:02.128Z,37.88
2023-05-09T22:53:29.384Z,45.95
2023-05-09T22:55:56.746Z,33.55
2023-05-09T22:58:23.954Z,45.38
2023-05-09T23:00:51.468Z,39.10
2023-05-09T23:03:18.971Z,49.53
2023-05-09T23:05:46.227Z,45.08
2023-05-09T23:08:13.422Z,47.28
2023-05-09T23:10:42.738Z,53.03
2023-05-09T23:13:10.056Z,50.95
2023-05-09T23:15:37.292Z,55.70
2023-05-09T23:18:04.680Z,50.65
2023-05-09T23:20:31.934Z,47.10
2023-05-09T23:22:59.115Z,58.58
2023-05-09T23:25:26.350Z,55.40
2023-05-09T23:27:54.209Z,48.58
2023-05-09T23:30:21.456Z,63.00
2023-05-09T23:32:48.625Z,52.75
2023-05-09T23:35:15.896Z,51.78
2023-05-09T23:37:43.125Z,60.45
2023-05-09T23:40:10.888Z,47.80
2023-05-09T23:42:38.118Z,55.58
2023-05-09T23:45:08.263Z,61.80
2023-05-09T23:47:35.480Z,60.30
2023-05-09T23:50:03.000Z,55.50
2023-05-09T23:52:30.420Z,53.17
2023-05-09T23:54:57.582Z,54.40
2023-05-09T23:57:24.817Z,66.05
2023-05-09T23:59:52.168Z,63.10
